This is the latest recevied weather packets stored in our database for station/object KQ4JKJ. If no packets are shown the sender has not sent any weather packets the latest 1 day(s).
| Time | Temp. | Humidity | Pressure | Rain* | Wind** | Luminosity | Snow |
|---|---|---|---|---|---|---|---|
| 1836274820 | 24.44° C | 95% | 1010 hPa | 0 mm | 0 m/s | 0 W/m² | - |
| 1836274518 | 24.44° C | 95% | 1010.2 hPa | 0 mm | 0 m/s | 0 W/m² | - |
| 1836274371 | 24.44° C | 94% | 1010.1 hPa | 0 mm | 0 m/s | 0 W/m² | - |
| 1836274217 | 24.44° C | 94% | 1010.2 hPa | 0 mm | 0 m/s | 0 W/m² | - |
| 1836273916 | 24.44° C | 94% | 1010.1 hPa | 0 mm | 0 m/s | 0 W/m² | - |
| 1778046319 | 23.89° C | 80% | 1010.7 hPa | 0 mm | 0.45 m/s, 120° | 0 W/m² | - |
| 1778046015 | 23.89° C | 79% | 1010.5 hPa | 0 mm | 0.45 m/s, 80° | 0 W/m² | - |
| 1778045713 | 23.89° C | 78% | 1010.6 hPa | 0 mm | 0.89 m/s, 97° | 0 W/m² | - |
| 1778045411 | 23.89° C | 78% | 1010.5 hPa | 0 mm | 0.45 m/s, 51° | 0 W/m² | - |
| 1778045109 | 23.89° C | 78% | 1010.8 hPa | 0 mm | 0 m/s | 0 W/m² | - |
| 1778044807 | 23.89° C | 78% | 1010.6 hPa | 0 mm | 0.45 m/s, 71° | 0 W/m² | - |
| 1778044503 | 23.89° C | 78% | 1010.8 hPa | 0 mm | 0.45 m/s, 86° | 0 W/m² | - |
| 1778044200 | 23.89° C | 79% | 1010.8 hPa | 0 mm | 0 m/s | 0 W/m² | - |
| 1778043898 | 23.89° C | 78% | 1010.7 hPa | 0 mm | 0.89 m/s, 133° | 0 W/m² | - |
| 1778043595 | 23.89° C | 78% | 1010.7 hPa | 0 mm | 0.89 m/s, 122° | 0 W/m² | - |
| 1778043291 | 23.89° C | 78% | 1010.8 hPa | 0 mm | 0.45 m/s, 33° | 0 W/m² | - |
| 1778042988 | 23.89° C | 79% | 1010.9 hPa | 0 mm | 0.45 m/s, 46° | 0 W/m² | - |
| 1778042687 | 23.89° C | 79% | 1010.8 hPa | 0 mm | 0.45 m/s, 103° | 0 W/m² | - |
| 1778042383 | 23.89° C | 78% | 1010.7 hPa | 0 mm | 0 m/s | 0 W/m² | - |
| 1778042080 | 23.89° C | 78% | 1010.8 hPa | 0 mm | 1.34 m/s, 146° | 0 W/m² | - |
| 1778041778 | 23.89° C | 78% | 1010.8 hPa | 0 mm | 0.45 m/s, 75° | 0 W/m² | - |
| 1778041477 | 23.89° C | 78% | 1010.7 hPa | 0 mm | 0.45 m/s, 129° | 0 W/m² | - |
| 1778041175 | 23.89° C | 78% | 1010.7 hPa | 0 mm | 0.45 m/s, 137° | 0 W/m² | - |
| 1778040872 | 23.89° C | 78% | 1010.7 hPa | 0 mm | 0.89 m/s, 138° | 0 W/m² | - |
| 1778040570 | 23.89° C | 78% | 1010.8 hPa | 0 mm | 1.34 m/s, 140° | 0 W/m² | - |
* Rain latest hour (hover to see other rain measurements)
** Current wind speed in m/s (hover to see current wind gust speed)